createdAt,value
2018-07-02T00:04:07.227Z,19.01
2018-07-02T00:09:02.678Z,18.83
2018-07-02T00:13:57.879Z,18.74
2018-07-02T00:18:53.097Z,18.69
2018-07-02T00:23:48.427Z,18.67
2018-07-02T00:28:43.645Z,18.63
2018-07-02T00:33:38.813Z,18.73
2018-07-02T00:38:34.093Z,18.52
2018-07-02T00:43:29.916Z,18.57
2018-07-02T00:48:25.276Z,18.44
2018-07-02T00:53:20.508Z,18.40
2018-07-02T00:58:16.539Z,18.22
2018-07-02T01:03:11.827Z,18.20
2018-07-02T01:08:07.526Z,18.19
2018-07-02T01:13:02.687Z,18.08
2018-07-02T01:17:59.531Z,18.02
2018-07-02T01:22:55.003Z,18.05
2018-07-02T01:27:50.432Z,17.93
2018-07-02T01:32:45.618Z,17.86
2018-07-02T01:37:40.916Z,17.79
2018-07-02T01:42:36.188Z,17.88
2018-07-02T01:47:31.415Z,17.88
2018-07-02T01:52:26.666Z,17.78
2018-07-02T01:57:22.895Z,17.74
2018-07-02T02:02:18.109Z,17.76
2018-07-02T02:07:13.440Z,17.63
2018-07-02T02:12:08.894Z,17.50
2018-07-02T02:17:04.044Z,17.45
2018-07-02T02:21:59.409Z,17.29
2018-07-02T02:26:54.854Z,17.28
2018-07-02T02:31:50.057Z,17.20
2018-07-02T02:36:45.331Z,17.08
2018-07-02T02:41:40.926Z,17.23
2018-07-02T02:46:36.253Z,17.02
2018-07-02T02:51:31.710Z,16.94
2018-07-02T02:56:27.278Z,17.01
2018-07-02T03:01:22.556Z,16.98
2018-07-02T03:06:17.959Z,16.87
2018-07-02T03:11:13.157Z,17.01
2018-07-02T03:16:08.155Z,16.95
2018-07-02T03:21:06.840Z,16.80
2018-07-02T03:26:02.045Z,16.74
2018-07-02T03:30:57.465Z,16.64
2018-07-02T03:35:53.824Z,16.68
2018-07-02T03:40:49.039Z,16.78
2018-07-02T03:45:44.422Z,16.93
2018-07-02T03:50:39.910Z,17.11
2018-07-02T03:55:35.306Z,17.10
2018-07-02T04:00:30.947Z,17.64
2018-07-02T04:05:26.656Z,18.39
2018-07-02T04:11:51.211Z,19.42
2018-07-02T04:16:47.530Z,20.50
2018-07-02T04:21:44.171Z,21.07
2018-07-02T04:26:42.027Z,21.14
2018-07-02T04:31:37.259Z,21.55
2018-07-02T04:36:32.626Z,22.38
2018-07-02T04:41:28.045Z,22.73
2018-07-02T04:46:23.827Z,22.69
2018-07-02T04:51:19.227Z,22.84
2018-07-02T04:56:14.425Z,23.05
2018-07-02T05:01:10.313Z,23.53
2018-07-02T05:06:05.636Z,24.08
2018-07-02T05:11:00.874Z,24.51
2018-07-02T05:15:56.914Z,23.94
2018-07-02T05:20:52.288Z,24.25
2018-07-02T05:25:47.511Z,23.86
2018-07-02T05:30:42.395Z,24.56
2018-07-02T05:35:37.599Z,24.71
2018-07-02T05:40:32.734Z,24.94
2018-07-02T05:45:35.083Z,25.60
2018-07-02T05:50:29.661Z,25.58
2018-07-02T05:55:24.746Z,25.51
2018-07-02T06:00:19.792Z,25.15
2018-07-02T06:05:15.041Z,25.01
2018-07-02T06:10:10.324Z,25.16
2018-07-02T06:15:05.077Z,25.54
2018-07-02T06:19:59.867Z,25.71
2018-07-02T06:24:54.774Z,25.52
2018-07-02T06:30:02.851Z,25.33
2018-07-02T06:35:02.006Z,24.62
2018-07-02T06:40:03.698Z,23.50
2018-07-02T06:44:59.492Z,23.47
2018-07-02T06:49:54.438Z,23.71
2018-07-02T06:54:49.926Z,23.83
2018-07-02T06:59:45.199Z,23.79
2018-07-02T07:04:40.455Z,23.65
2018-07-02T07:09:52.349Z,23.98
2018-07-02T07:14:47.017Z,24.01
2018-07-02T07:19:41.827Z,24.15
2018-07-02T07:24:36.592Z,23.95
2018-07-02T07:29:31.840Z,23.67
2018-07-02T07:34:27.274Z,23.84
2018-07-02T07:39:22.553Z,22.97
2018-07-02T07:44:18.088Z,23.19
2018-07-02T07:49:13.099Z,23.41
2018-07-02T07:54:09.085Z,23.29
2018-07-02T07:59:04.457Z,23.38
2018-07-02T08:04:00.569Z,23.74
2018-07-02T08:08:57.207Z,23.30
2018-07-02T08:13:52.986Z,23.64
2018-07-02T08:18:47.604Z,23.81
2018-07-02T08:23:42.572Z,23.86
2018-07-02T08:28:41.630Z,23.88
2018-07-02T08:33:45.731Z,24.19
2018-07-02T08:38:40.927Z,24.39
2018-07-02T08:43:35.531Z,24.63
2018-07-02T08:48:46.209Z,24.68
2018-07-02T08:53:41.308Z,25.63
2018-07-02T08:58:37.822Z,24.41
2018-07-02T09:03:33.498Z,24.01
2018-07-02T09:08:29.269Z,23.97
2018-07-02T09:13:24.209Z,24.12
2018-07-02T09:18:19.049Z,24.63
2018-07-02T09:23:14.306Z,25.32
2018-07-02T09:28:09.243Z,25.00
2018-07-02T09:33:03.650Z,25.00
2018-07-02T09:37:58.693Z,25.02
2018-07-02T09:42:53.318Z,25.21
2018-07-02T09:47:48.077Z,25.78
2018-07-02T09:52:44.255Z,26.02
2018-07-02T09:57:38.951Z,25.51
2018-07-02T10:02:33.689Z,25.60
2018-07-02T10:07:28.535Z,26.19
2018-07-02T10:12:38.229Z,26.22
2018-07-02T10:17:33.285Z,26.82
2018-07-02T10:22:28.005Z,26.94
2018-07-02T10:27:23.826Z,27.49
2018-07-02T10:32:18.489Z,27.80
2018-07-02T10:37:13.420Z,27.68
2018-07-02T10:42:08.012Z,27.47
2018-07-02T10:47:02.633Z,28.11
2018-07-02T10:51:58.024Z,28.64
2018-07-02T10:56:54.321Z,28.68
2018-07-02T11:01:48.945Z,28.18
2018-07-02T11:06:45.896Z,27.65
2018-07-02T11:11:40.486Z,27.52
2018-07-02T11:17:37.963Z,27.24
2018-07-02T11:22:32.753Z,28.04
2018-07-02T11:32:40.851Z,27.52
2018-07-02T11:37:43.537Z,27.76
2018-07-02T11:42:38.309Z,28.10
2018-07-02T11:47:32.817Z,27.87
2018-07-02T11:52:27.433Z,28.14
2018-07-02T11:57:22.143Z,28.26
2018-07-02T12:02:16.775Z,28.40
2018-07-02T12:07:11.372Z,28.20
2018-07-02T12:12:06.235Z,28.17
2018-07-02T12:17:02.946Z,27.99
2018-07-02T12:21:59.280Z,27.76
2018-07-02T12:26:54.321Z,28.05
2018-07-02T12:31:49.323Z,28.43
2018-07-02T12:36:44.199Z,28.51
2018-07-02T12:41:39.244Z,28.43
2018-07-02T12:46:35.092Z,28.80
2018-07-02T12:51:29.781Z,29.35
2018-07-02T12:56:25.201Z,29.77
2018-07-02T13:01:20.835Z,29.31
2018-07-02T13:06:16.117Z,28.74
2018-07-02T13:11:11.783Z,28.79
2018-07-02T13:16:06.950Z,28.59
2018-07-02T13:21:01.617Z,28.93
2018-07-02T13:25:56.331Z,29.34
2018-07-02T13:30:53.259Z,29.62
2018-07-02T13:35:47.881Z,29.81
2018-07-02T13:40:43.643Z,29.45
2018-07-02T13:45:38.361Z,29.59
2018-07-02T13:50:32.954Z,29.65
2018-07-02T14:00:52.908Z,29.94
2018-07-02T14:05:47.623Z,29.82
2018-07-02T14:10:42.398Z,30.08
2018-07-02T14:15:38.041Z,30.63
2018-07-02T14:20:33.397Z,30.95
2018-07-02T14:25:28.264Z,30.98
2018-07-02T14:30:23.172Z,31.02
2018-07-02T14:35:18.543Z,31.10
2018-07-02T14:40:14.980Z,30.56
2018-07-02T14:45:10.649Z,30.73
2018-07-02T14:50:06.277Z,30.86
2018-07-02T14:55:01.703Z,30.66
2018-07-02T15:00:00.923Z,30.67
2018-07-02T15:04:57.216Z,30.43
2018-07-02T15:09:51.825Z,30.65
2018-07-02T15:14:46.699Z,30.69
2018-07-02T15:19:42.211Z,30.88
2018-07-02T15:24:50.570Z,30.65
2018-07-02T15:29:45.285Z,30.68
2018-07-02T15:34:40.172Z,30.36
2018-07-02T15:39:35.009Z,30.65
2018-07-02T15:44:30.595Z,30.56
2018-07-02T15:49:26.368Z,30.56
2018-07-02T15:54:21.043Z,30.50
2018-07-02T15:59:15.876Z,30.66
2018-07-02T16:04:10.767Z,30.79
2018-07-02T16:09:08.715Z,30.50
2018-07-02T16:14:03.595Z,30.54
2018-07-02T16:18:58.994Z,30.55
2018-07-02T16:23:53.940Z,30.37
2018-07-02T16:28:48.762Z,30.40
2018-07-02T16:33:43.612Z,30.53
2018-07-02T16:38:38.946Z,30.47
2018-07-02T16:43:34.124Z,30.42
2018-07-02T16:48:28.651Z,30.34
2018-07-02T16:53:23.679Z,30.22
2018-07-02T16:58:19.623Z,30.21
2018-07-02T17:03:14.488Z,29.96
2018-07-02T17:08:10.588Z,29.29
2018-07-02T17:13:05.726Z,29.10
2018-07-02T17:18:00.857Z,28.99
2018-07-02T17:22:56.392Z,29.26
2018-07-02T17:29:20.549Z,29.19
2018-07-02T17:34:15.728Z,28.61
2018-07-02T17:39:12.146Z,28.65
2018-07-02T17:44:07.281Z,28.89
2018-07-02T17:49:02.295Z,28.71
2018-07-02T17:53:57.379Z,28.24
2018-07-02T17:58:53.167Z,28.22
2018-07-02T18:03:53.062Z,28.19
2018-07-02T18:08:48.086Z,27.77
2018-07-02T18:13:45.206Z,27.83
2018-07-02T18:18:40.086Z,27.79
2018-07-02T18:23:35.146Z,27.66
2018-07-02T18:28:29.708Z,27.39
2018-07-02T18:33:24.744Z,27.35
2018-07-02T18:38:19.845Z,27.35
2018-07-02T18:43:14.536Z,27.27
2018-07-02T18:48:09.614Z,26.89
2018-07-02T18:53:04.672Z,26.97
2018-07-02T18:57:59.890Z,26.98
2018-07-02T19:02:55.205Z,26.58
2018-07-02T19:07:51.424Z,26.29
2018-07-02T19:12:46.536Z,26.24
2018-07-02T19:17:41.589Z,25.92
2018-07-02T19:22:37.161Z,25.80
2018-07-02T19:27:32.192Z,25.69
2018-07-02T19:32:28.911Z,25.51
2018-07-02T19:37:25.520Z,25.42
2018-07-02T19:42:22.018Z,25.24
2018-07-02T19:47:19.421Z,25.16
2018-07-02T19:52:14.461Z,25.00
2018-07-02T19:57:09.634Z,25.06
2018-07-02T20:02:04.791Z,24.90
2018-07-02T20:06:59.862Z,24.83
2018-07-02T20:11:54.925Z,24.71
2018-07-02T20:16:50.010Z,24.67
2018-07-02T20:21:45.066Z,24.65
2018-07-02T20:26:43.017Z,24.64
2018-07-02T20:31:38.303Z,24.55
2018-07-02T20:36:33.788Z,24.45
2018-07-02T20:41:28.757Z,24.31
2018-07-02T20:46:23.690Z,24.16
2018-07-02T20:51:18.929Z,24.09
2018-07-02T20:56:13.561Z,24.01
2018-07-02T21:01:08.125Z,24.09
2018-07-02T21:06:02.742Z,23.89
2018-07-02T21:10:57.714Z,23.76
2018-07-02T21:15:52.836Z,23.66
2018-07-02T21:20:48.412Z,23.51
2018-07-02T21:25:43.402Z,23.39
2018-07-02T21:30:38.341Z,23.39
2018-07-02T21:35:33.256Z,23.36
2018-07-02T21:40:28.615Z,23.57
2018-07-02T21:45:23.534Z,23.47
2018-07-02T21:50:18.468Z,23.33
2018-07-02T21:55:13.627Z,23.34
2018-07-02T22:00:11.491Z,23.16
2018-07-02T22:05:06.912Z,23.07
2018-07-02T22:10:01.830Z,23.01
2018-07-02T22:14:58.897Z,23.01
2018-07-02T22:19:53.796Z,22.99
2018-07-02T22:24:48.825Z,22.96
2018-07-02T22:29:43.690Z,22.90
2018-07-02T22:34:38.603Z,22.79
2018-07-02T22:39:33.508Z,22.66
2018-07-02T22:44:28.507Z,22.63
2018-07-02T22:49:23.358Z,22.53
2018-07-02T22:54:18.368Z,22.52
2018-07-02T22:59:13.192Z,22.51
2018-07-02T23:04:08.193Z,22.30
2018-07-02T23:09:03.048Z,22.23
2018-07-02T23:13:57.963Z,22.15
2018-07-02T23:18:53.188Z,22.09
2018-07-02T23:23:48.189Z,22.19
2018-07-02T23:28:43.045Z,21.99
2018-07-02T23:33:37.924Z,21.79
2018-07-02T23:38:32.884Z,21.68
2018-07-02T23:43:27.760Z,21.65
2018-07-02T23:48:22.625Z,21.58
2018-07-02T23:53:17.511Z,21.47
2018-07-02T23:58:12.023Z,21.43
